sensor_id;sensor_type;location;lat;lon;timestamp;pressure;altitude;pressure_sealevel;temperature;humidity
36828;BME280;22766;48.042;11.192;2022-10-30T00:01:34;95585.88;;;10.15;100.00
36828;BME280;22766;48.042;11.192;2022-10-30T00:04:01;95588.97;;;10.09;100.00
36828;BME280;22766;48.042;11.192;2022-10-30T00:06:28;95581.59;;;10.05;100.00
36828;BME280;22766;48.042;11.192;2022-10-30T00:08:55;95586.50;;;9.98;100.00
36828;BME280;22766;48.042;11.192;2022-10-30T00:11:21;95579.69;;;9.97;100.00
36828;BME280;22766;48.042;11.192;2022-10-30T00:13:48;95580.13;;;10.02;100.00
36828;BME280;22766;48.042;11.192;2022-10-30T00:16:15;95582.16;;;9.99;100.00
36828;BME280;22766;48.042;11.192;2022-10-30T00:18:41;95577.41;;;9.94;100.00
36828;BME280;22766;48.042;11.192;2022-10-30T00:21:11;95574.00;;;9.94;100.00
36828;BME280;22766;48.042;11.192;2022-10-30T00:23:38;95573.44;;;9.90;100.00
36828;BME280;22766;48.042;11.192;2022-10-30T00:26:10;95583.75;;;9.90;100.00
36828;BME280;22766;48.042;11.192;2022-10-30T00:28:36;95570.31;;;9.87;100.00
36828;BME280;22766;48.042;11.192;2022-10-30T00:31:04;95575.09;;;9.82;100.00
36828;BME280;22766;48.042;11.192;2022-10-30T00:33:31;95567.59;;;9.79;100.00
36828;BME280;22766;48.042;11.192;2022-10-30T00:35:58;95568.94;;;9.73;100.00
36828;BME280;22766;48.042;11.192;2022-10-30T00:38:25;95573.16;;;9.65;100.00
36828;BME280;22766;48.042;11.192;2022-10-30T00:40:52;95571.34;;;9.56;100.00
36828;BME280;22766;48.042;11.192;2022-10-30T00:43:35;95567.81;;;9.47;100.00
36828;BME280;22766;48.042;11.192;2022-10-30T00:46:20;95567.25;;;9.43;100.00
36828;BME280;22766;48.042;11.192;2022-10-30T00:49:00;95566.81;;;9.38;100.00
36828;BME280;22766;48.042;11.192;2022-10-30T00:51:29;95564.38;;;9.37;100.00
36828;BME280;22766;48.042;11.192;2022-10-30T00:53:58;95562.75;;;9.36;100.00
36828;BME280;22766;48.042;11.192;2022-10-30T00:56:27;95557.84;;;9.33;100.00
36828;BME280;22766;48.042;11.192;2022-10-30T00:58:58;95559.88;;;9.29;100.00
36828;BME280;22766;48.042;11.192;2022-10-30T01:01:28;95549.56;;;9.29;100.00
36828;BME280;22766;48.042;11.192;2022-10-30T01:03:58;95556.34;;;9.21;100.00
36828;BME280;22766;48.042;11.192;2022-10-30T01:06:27;95555.34;;;9.12;100.00
36828;BME280;22766;48.042;11.192;2022-10-30T01:08:54;95559.81;;;9.10;100.00
36828;BME280;22766;48.042;11.192;2022-10-30T01:11:25;95558.97;;;9.10;100.00
36828;BME280;22766;48.042;11.192;2022-10-30T01:13:54;95560.91;;;9.08;100.00
36828;BME280;22766;48.042;11.192;2022-10-30T01:19:31;95558.28;;;8.98;100.00
36828;BME280;22766;48.042;11.192;2022-10-30T01:22:22;95568.31;;;9.01;100.00
36828;BME280;22766;48.042;11.192;2022-10-30T01:38:27;95579.53;;;8.91;100.00
36828;BME280;22766;48.042;11.192;2022-10-30T01:40:55;95579.34;;;8.83;100.00
36828;BME280;22766;48.042;11.192;2022-10-30T01:43:21;95582.78;;;8.72;100.00
36828;BME280;22766;48.042;11.192;2022-10-30T01:46:18;95585.75;;;8.68;100.00
36828;BME280;22766;48.042;11.192;2022-10-30T01:51:48;95590.91;;;8.68;100.00
36828;BME280;22766;48.042;11.192;2022-10-30T01:57:01;95586.13;;;8.63;100.00
36828;BME280;22766;48.042;11.192;2022-10-30T01:59:43;95586.75;;;8.76;100.00
36828;BME280;22766;48.042;11.192;2022-10-30T02:02:13;95584.56;;;8.72;100.00
36828;BME280;22766;48.042;11.192;2022-10-30T02:04:40;95587.63;;;8.66;100.00
36828;BME280;22766;48.042;11.192;2022-10-30T02:07:09;95584.94;;;8.67;100.00
36828;BME280;22766;48.042;11.192;2022-10-30T02:09:42;95586.00;;;8.65;100.00
36828;BME280;22766;48.042;11.192;2022-10-30T02:12:12;95590.59;;;8.61;100.00
36828;BME280;22766;48.042;11.192;2022-10-30T02:14:42;95583.00;;;8.60;100.00
36828;BME280;22766;48.042;11.192;2022-10-30T02:17:10;95582.16;;;8.59;100.00
36828;BME280;22766;48.042;11.192;2022-10-30T02:19:37;95580.28;;;8.61;100.00
36828;BME280;22766;48.042;11.192;2022-10-30T02:22:04;95580.34;;;8.71;100.00
36828;BME280;22766;48.042;11.192;2022-10-30T02:24:31;95573.19;;;8.74;100.00
36828;BME280;22766;48.042;11.192;2022-10-30T02:26:58;95569.31;;;8.89;100.00
36828;BME280;22766;48.042;11.192;2022-10-30T02:29:25;95571.03;;;9.00;100.00
36828;BME280;22766;48.042;11.192;2022-10-30T02:31:51;95566.69;;;9.00;100.00
36828;BME280;22766;48.042;11.192;2022-10-30T02:34:18;95566.00;;;8.98;100.00
36828;BME280;22766;48.042;11.192;2022-10-30T02:36:45;95569.66;;;8.96;100.00
36828;BME280;22766;48.042;11.192;2022-10-30T02:39:12;95577.06;;;8.89;100.00
36828;BME280;22766;48.042;11.192;2022-10-30T02:41:39;95570.66;;;8.84;100.00
36828;BME280;22766;48.042;11.192;2022-10-30T02:44:06;95563.16;;;8.71;100.00
36828;BME280;22766;48.042;11.192;2022-10-30T02:46:34;95568.66;;;8.67;100.00
36828;BME280;22766;48.042;11.192;2022-10-30T02:49:01;95571.56;;;8.53;100.00
36828;BME280;22766;48.042;11.192;2022-10-30T02:51:30;95573.00;;;8.45;100.00
36828;BME280;22766;48.042;11.192;2022-10-30T02:53:57;95573.63;;;8.38;100.00
36828;BME280;22766;48.042;11.192;2022-10-30T02:56:24;95573.31;;;8.31;100.00
36828;BME280;22766;48.042;11.192;2022-10-30T02:58:54;95578.97;;;8.25;100.00
36828;BME280;22766;48.042;11.192;2022-10-30T03:01:21;95576.38;;;8.25;100.00
36828;BME280;22766;48.042;11.192;2022-10-30T03:03:51;95578.97;;;8.25;100.00
36828;BME280;22766;48.042;11.192;2022-10-30T03:06:18;95581.41;;;8.27;100.00
36828;BME280;22766;48.042;11.192;2022-10-30T03:08:44;95577.66;;;8.20;100.00
36828;BME280;22766;48.042;11.192;2022-10-30T03:11:14;95582.03;;;8.08;100.00
36828;BME280;22766;48.042;11.192;2022-10-30T03:13:42;95576.06;;;8.08;100.00
36828;BME280;22766;48.042;11.192;2022-10-30T03:16:11;95568.00;;;8.12;100.00
36828;BME280;22766;48.042;11.192;2022-10-30T03:18:39;95570.19;;;8.17;100.00
36828;BME280;22766;48.042;11.192;2022-10-30T03:21:11;95571.47;;;8.22;100.00
36828;BME280;22766;48.042;11.192;2022-10-30T03:23:38;95563.25;;;8.28;100.00
36828;BME280;22766;48.042;11.192;2022-10-30T03:26:05;95566.53;;;8.30;100.00
36828;BME280;22766;48.042;11.192;2022-10-30T03:28:38;95562.22;;;8.31;100.00
36828;BME280;22766;48.042;11.192;2022-10-30T03:31:08;95552.97;;;8.28;100.00
36828;BME280;22766;48.042;11.192;2022-10-30T03:33:38;95558.59;;;8.22;100.00
36828;BME280;22766;48.042;11.192;2022-10-30T03:36:06;95555.56;;;8.17;100.00
36828;BME280;22766;48.042;11.192;2022-10-30T03:38:34;95553.25;;;8.14;100.00
36828;BME280;22766;48.042;11.192;2022-10-30T03:41:01;95544.97;;;8.11;100.00
36828;BME280;22766;48.042;11.192;2022-10-30T03:43:28;95543.19;;;8.11;100.00
36828;BME280;22766;48.042;11.192;2022-10-30T03:45:55;95540.91;;;8.08;100.00
36828;BME280;22766;48.042;11.192;2022-10-30T03:48:24;95547.91;;;8.06;100.00
36828;BME280;22766;48.042;11.192;2022-10-30T03:50:53;95555.91;;;7.92;100.00
36828;BME280;22766;48.042;11.192;2022-10-30T03:53:20;95558.19;;;8.06;100.00
36828;BME280;22766;48.042;11.192;2022-10-30T03:55:49;95554.03;;;7.94;100.00
36828;BME280;22766;48.042;11.192;2022-10-30T03:58:16;95557.00;;;7.90;100.00
36828;BME280;22766;48.042;11.192;2022-10-30T04:00:43;95562.88;;;7.81;100.00
36828;BME280;22766;48.042;11.192;2022-10-30T04:03:10;95567.41;;;7.77;100.00
36828;BME280;22766;48.042;11.192;2022-10-30T04:05:40;95566.00;;;7.73;100.00
36828;BME280;22766;48.042;11.192;2022-10-30T04:08:11;95569.75;;;7.80;100.00
36828;BME280;22766;48.042;11.192;2022-10-30T04:10:43;95571.25;;;7.83;100.00
36828;BME280;22766;48.042;11.192;2022-10-30T04:13:12;95569.63;;;7.82;100.00
36828;BME280;22766;48.042;11.192;2022-10-30T04:15:46;95569.38;;;7.85;100.00
36828;BME280;22766;48.042;11.192;2022-10-30T04:18:24;95575.59;;;7.82;100.00
36828;BME280;22766;48.042;11.192;2022-10-30T04:20:51;95571.75;;;7.77;100.00
36828;BME280;22766;48.042;11.192;2022-10-30T04:23:18;95571.28;;;7.72;100.00
36828;BME280;22766;48.042;11.192;2022-10-30T04:25:46;95574.94;;;7.69;100.00
36828;BME280;22766;48.042;11.192;2022-10-30T04:28:13;95570.22;;;7.74;100.00
36828;BME280;22766;48.042;11.192;2022-10-30T04:30:40;95570.75;;;7.89;100.00
36828;BME280;22766;48.042;11.192;2022-10-30T04:33:10;95572.63;;;7.87;100.00
36828;BME280;22766;48.042;11.192;2022-10-30T04:35:39;95570.75;;;7.89;100.00
36828;BME280;22766;48.042;11.192;2022-10-30T04:38:17;95577.44;;;7.91;100.00
36828;BME280;22766;48.042;11.192;2022-10-30T04:40:46;95576.47;;;7.92;100.00
36828;BME280;22766;48.042;11.192;2022-10-30T04:43:13;95578.00;;;7.95;100.00
36828;BME280;22766;48.042;11.192;2022-10-30T04:45:41;95571.81;;;7.97;100.00
36828;BME280;22766;48.042;11.192;2022-10-30T04:48:13;95568.53;;;8.27;100.00
36828;BME280;22766;48.042;11.192;2022-10-30T04:50:41;95558.13;;;8.28;100.00
36828;BME280;22766;48.042;11.192;2022-10-30T04:53:16;95558.97;;;8.18;100.00
36828;BME280;22766;48.042;11.192;2022-10-30T04:55:46;95560.63;;;8.08;100.00
36828;BME280;22766;48.042;11.192;2022-10-30T04:58:13;95551.84;;;7.90;100.00
36828;BME280;22766;48.042;11.192;2022-10-30T05:00:42;95556.91;;;7.80;100.00
36828;BME280;22766;48.042;11.192;2022-10-30T05:03:17;95552.97;;;7.65;100.00
36828;BME280;22766;48.042;11.192;2022-10-30T05:05:46;95554.19;;;7.50;100.00
36828;BME280;22766;48.042;11.192;2022-10-30T05:08:14;95557.34;;;7.42;100.00
36828;BME280;22766;48.042;11.192;2022-10-30T05:10:40;95555.13;;;7.38;100.00
36828;BME280;22766;48.042;11.192;2022-10-30T05:13:09;95550.84;;;7.27;100.00
36828;BME280;22766;48.042;11.192;2022-10-30T05:15:36;95549.88;;;7.28;100.00
36828;BME280;22766;48.042;11.192;2022-10-30T05:18:03;95549.19;;;7.26;100.00
36828;BME280;22766;48.042;11.192;2022-10-30T05:20:30;95543.72;;;7.20;100.00
36828;BME280;22766;48.042;11.192;2022-10-30T05:22:57;95538.59;;;7.20;100.00
36828;BME280;22766;48.042;11.192;2022-10-30T05:25:26;95538.81;;;7.17;100.00
36828;BME280;22766;48.042;11.192;2022-10-30T05:28:03;95539.63;;;7.17;100.00
36828;BME280;22766;48.042;11.192;2022-10-30T05:30:36;95540.34;;;7.19;100.00
36828;BME280;22766;48.042;11.192;2022-10-30T05:33:09;95540.56;;;7.27;100.00
36828;BME280;22766;48.042;11.192;2022-10-30T05:35:37;95538.78;;;7.28;100.00
36828;BME280;22766;48.042;11.192;2022-10-30T05:38:05;95539.38;;;7.20;100.00
36828;BME280;22766;48.042;11.192;2022-10-30T05:40:33;95540.09;;;7.11;100.00
36828;BME280;22766;48.042;11.192;2022-10-30T05:43:00;95540.13;;;7.00;100.00
36828;BME280;22766;48.042;11.192;2022-10-30T05:45:28;95542.91;;;6.97;100.00
36828;BME280;22766;48.042;11.192;2022-10-30T05:48:07;95552.47;;;6.95;100.00
36828;BME280;22766;48.042;11.192;2022-10-30T05:50:40;95550.25;;;6.91;100.00
36828;BME280;22766;48.042;11.192;2022-10-30T05:53:16;95549.56;;;6.89;100.00
36828;BME280;22766;48.042;11.192;2022-10-30T05:55:43;95552.84;;;6.91;100.00
36828;BME280;22766;48.042;11.192;2022-10-30T05:58:18;95547.13;;;6.98;100.00
36828;BME280;22766;48.042;11.192;2022-10-30T06:00:45;95555.38;;;7.13;100.00
36828;BME280;22766;48.042;11.192;2022-10-30T06:03:17;95551.19;;;7.12;100.00
36828;BME280;22766;48.042;11.192;2022-10-30T06:05:45;95553.75;;;7.12;100.00
36828;BME280;22766;48.042;11.192;2022-10-30T06:08:13;95561.00;;;7.18;100.00
36828;BME280;22766;48.042;11.192;2022-10-30T06:10:42;95551.06;;;7.24;100.00
36828;BME280;22766;48.042;11.192;2022-10-30T06:13:19;95548.84;;;7.31;100.00
36828;BME280;22766;48.042;11.192;2022-10-30T06:16:02;95550.94;;;7.37;100.00
36828;BME280;22766;48.042;11.192;2022-10-30T06:18:49;95549.66;;;7.42;100.00
36828;BME280;22766;48.042;11.192;2022-10-30T06:21:16;95548.69;;;7.43;100.00
36828;BME280;22766;48.042;11.192;2022-10-30T06:23:53;95548.81;;;7.42;100.00
36828;BME280;22766;48.042;11.192;2022-10-30T06:26:30;95545.06;;;7.46;100.00
36828;BME280;22766;48.042;11.192;2022-10-30T06:29:02;95540.25;;;7.52;100.00
36828;BME280;22766;48.042;11.192;2022-10-30T06:31:29;95546.56;;;7.60;100.00
36828;BME280;22766;48.042;11.192;2022-10-30T06:33:57;95547.03;;;7.53;100.00
36828;BME280;22766;48.042;11.192;2022-10-30T06:36:24;95554.19;;;7.50;100.00
36828;BME280;22766;48.042;11.192;2022-10-30T06:38:51;95543.53;;;7.54;100.00
36828;BME280;22766;48.042;11.192;2022-10-30T06:41:23;95552.88;;;7.55;100.00
36828;BME280;22766;48.042;11.192;2022-10-30T06:44:27;95553.19;;;7.62;100.00
36828;BME280;22766;48.042;11.192;2022-10-30T06:46:54;95548.16;;;7.72;100.00
36828;BME280;22766;48.042;11.192;2022-10-30T06:49:21;95550.03;;;7.81;100.00
36828;BME280;22766;48.042;11.192;2022-10-30T06:51:49;95553.25;;;7.94;100.00
36828;BME280;22766;48.042;11.192;2022-10-30T06:54:16;95555.97;;;8.13;100.00
36828;BME280;22766;48.042;11.192;2022-10-30T06:56:58;95550.88;;;8.33;100.00
36828;BME280;22766;48.042;11.192;2022-10-30T06:59:43;95550.22;;;8.41;100.00
36828;BME280;22766;48.042;11.192;2022-10-30T07:02:23;95550.44;;;8.49;100.00
36828;BME280;22766;48.042;11.192;2022-10-30T07:04:54;95544.88;;;8.54;100.00
36828;BME280;22766;48.042;11.192;2022-10-30T07:07:21;95546.97;;;8.60;100.00
36828;BME280;22766;48.042;11.192;2022-10-30T07:09:48;95546.19;;;8.69;100.00
36828;BME280;22766;48.042;11.192;2022-10-30T07:12:18;95555.16;;;8.74;100.00
36828;BME280;22766;48.042;11.192;2022-10-30T07:14:57;95562.94;;;8.84;100.00
36828;BME280;22766;48.042;11.192;2022-10-30T07:17:39;95556.78;;;8.96;100.00
36828;BME280;22766;48.042;11.192;2022-10-30T07:20:17;95557.63;;;9.06;100.00
36828;BME280;22766;48.042;11.192;2022-10-30T07:22:45;95549.25;;;9.13;100.00
36828;BME280;22766;48.042;11.192;2022-10-30T07:25:11;95556.88;;;9.24;100.00
36828;BME280;22766;48.042;11.192;2022-10-30T07:27:55;95557.34;;;9.39;100.00
36828;BME280;22766;48.042;11.192;2022-10-30T07:30:30;95559.97;;;9.58;100.00
36828;BME280;22766;48.042;11.192;2022-10-30T07:33:19;95556.75;;;9.85;100.00
36828;BME280;22766;48.042;11.192;2022-10-30T07:35:53;95563.72;;;10.13;100.00
36828;BME280;22766;48.042;11.192;2022-10-30T07:38:35;95563.47;;;10.45;100.00
36828;BME280;22766;48.042;11.192;2022-10-30T07:41:20;95562.75;;;10.71;100.00
36828;BME280;22766;48.042;11.192;2022-10-30T07:43:49;95570.00;;;10.95;100.00
36828;BME280;22766;48.042;11.192;2022-10-30T07:46:34;95565.41;;;11.25;100.00
36828;BME280;22766;48.042;11.192;2022-10-30T07:49:21;95568.53;;;11.56;100.00
36828;BME280;22766;48.042;11.192;2022-10-30T07:51:50;95567.59;;;11.84;100.00
36828;BME280;22766;48.042;11.192;2022-10-30T07:54:17;95569.97;;;12.13;100.00
36828;BME280;22766;48.042;11.192;2022-10-30T07:56:44;95564.56;;;12.42;100.00
36828;BME280;22766;48.042;11.192;2022-10-30T07:59:16;95562.41;;;12.80;100.00
36828;BME280;22766;48.042;11.192;2022-10-30T08:02:01;95562.19;;;13.17;100.00
36828;BME280;22766;48.042;11.192;2022-10-30T08:04:42;95564.44;;;13.46;100.00
36828;BME280;22766;48.042;11.192;2022-10-30T08:07:31;95559.03;;;13.73;100.00
36828;BME280;22766;48.042;11.192;2022-10-30T08:09:58;95566.16;;;13.71;100.00
36828;BME280;22766;48.042;11.192;2022-10-30T08:12:26;95562.19;;;14.00;100.00
36828;BME280;22766;48.042;11.192;2022-10-30T08:14:53;95562.06;;;14.26;100.00
36828;BME280;22766;48.042;11.192;2022-10-30T08:17:20;95563.56;;;14.45;100.00
36828;BME280;22766;48.042;11.192;2022-10-30T08:19:48;95560.78;;;14.70;100.00
36828;BME280;22766;48.042;11.192;2022-10-30T08:22:16;95556.06;;;14.98;100.00
36828;BME280;22766;48.042;11.192;2022-10-30T08:24:47;95550.63;;;15.24;100.00
36828;BME280;22766;48.042;11.192;2022-10-30T08:27:13;95551.56;;;15.55;100.00
36828;BME280;22766;48.042;11.192;2022-10-30T08:29:40;95553.38;;;15.77;100.00
36828;BME280;22766;48.042;11.192;2022-10-30T08:32:07;95549.09;;;16.15;100.00
36828;BME280;22766;48.042;11.192;2022-10-30T08:34:54;95542.94;;;16.61;100.00
36828;BME280;22766;48.042;11.192;2022-10-30T08:37:20;95539.53;;;16.98;100.00
36828;BME280;22766;48.042;11.192;2022-10-30T08:39:47;95540.06;;;17.37;100.00
36828;BME280;22766;48.042;11.192;2022-10-30T08:42:52;95545.25;;;17.95;96.20
36828;BME280;22766;48.042;11.192;2022-10-30T08:45:21;95544.47;;;18.51;91.51
36828;BME280;22766;48.042;11.192;2022-10-30T08:48:03;95542.81;;;18.93;87.64
36828;BME280;22766;48.042;11.192;2022-10-30T08:50:35;95543.28;;;19.03;80.90
36828;BME280;22766;48.042;11.192;2022-10-30T08:53:05;95540.72;;;19.09;79.78
36828;BME280;22766;48.042;11.192;2022-10-30T08:55:33;95547.19;;;19.13;75.49
36828;BME280;22766;48.042;11.192;2022-10-30T08:58:02;95539.19;;;19.21;77.45
36828;BME280;22766;48.042;11.192;2022-10-30T09:00:29;95536.47;;;19.70;80.87
36828;BME280;22766;48.042;11.192;2022-10-30T09:03:11;95531.88;;;20.32;76.74
36828;BME280;22766;48.042;11.192;2022-10-30T09:05:59;95536.34;;;20.71;72.56
36828;BME280;22766;48.042;11.192;2022-10-30T09:08:29;95532.13;;;20.70;70.07
36828;BME280;22766;48.042;11.192;2022-10-30T09:11:09;95539.19;;;20.96;71.27
36828;BME280;22766;48.042;11.192;2022-10-30T09:13:36;95535.38;;;21.11;68.13
36828;BME280;22766;48.042;11.192;2022-10-30T09:16:04;95536.91;;;21.52;65.49
36828;BME280;22766;48.042;11.192;2022-10-30T09:18:34;95536.06;;;22.15;66.20
36828;BME280;22766;48.042;11.192;2022-10-30T09:21:00;95536.28;;;22.51;58.23
36828;BME280;22766;48.042;11.192;2022-10-30T09:23:34;95537.59;;;22.98;58.84
36828;BME280;22766;48.042;11.192;2022-10-30T09:26:20;95536.19;;;23.20;55.71
36828;BME280;22766;48.042;11.192;2022-10-30T09:28:52;95537.00;;;23.20;57.06
36828;BME280;22766;48.042;11.192;2022-10-30T09:31:51;95540.28;;;22.91;56.12
36828;BME280;22766;48.042;11.192;2022-10-30T09:34:18;95534.09;;;23.04;57.14
36828;BME280;22766;48.042;11.192;2022-10-30T09:36:52;95531.84;;;23.32;56.30
36828;BME280;22766;48.042;11.192;2022-10-30T09:39:19;95526.72;;;23.37;54.15
36828;BME280;22766;48.042;11.192;2022-10-30T09:47:18;95538.31;;;24.08;52.50
36828;BME280;22766;48.042;11.192;2022-10-30T09:50:24;95544.25;;;24.52;50.28
36828;BME280;22766;48.042;11.192;2022-10-30T09:53:06;95540.47;;;25.12;47.65
36828;BME280;22766;48.042;11.192;2022-10-30T10:01:11;95545.84;;;26.10;42.32
36828;BME280;22766;48.042;11.192;2022-10-30T10:04:27;95542.44;;;26.54;41.47
36828;BME280;22766;48.042;11.192;2022-10-30T10:07:36;95543.66;;;26.74;40.85
36828;BME280;22766;48.042;11.192;2022-10-30T10:10:38;95536.06;;;26.66;39.04
36828;BME280;22766;48.042;11.192;2022-10-30T10:13:29;95537.09;;;26.37;39.83
36828;BME280;22766;48.042;11.192;2022-10-30T10:16:03;95544.75;;;26.22;38.45
36828;BME280;22766;48.042;11.192;2022-10-30T10:18:42;95532.84;;;26.08;39.45
36828;BME280;22766;48.042;11.192;2022-10-30T10:21:38;95540.44;;;26.72;37.33
36828;BME280;22766;48.042;11.192;2022-10-30T10:24:21;95531.63;;;27.00;38.32
36828;BME280;22766;48.042;11.192;2022-10-30T10:30:01;95533.81;;;26.30;37.04
36828;BME280;22766;48.042;11.192;2022-10-30T10:43:41;95532.22;;;27.35;37.23
36828;BME280;22766;48.042;11.192;2022-10-30T10:51:41;95526.97;;;28.43;35.12
36828;BME280;22766;48.042;11.192;2022-10-30T10:54:20;95522.88;;;27.16;36.35
36828;BME280;22766;48.042;11.192;2022-10-30T10:56:50;95523.25;;;27.80;35.17
36828;BME280;22766;48.042;11.192;2022-10-30T11:01:59;95516.94;;;29.09;34.15
36828;BME280;22766;48.042;11.192;2022-10-30T11:04:40;95518.88;;;30.02;34.76
36828;BME280;22766;48.042;11.192;2022-10-30T11:07:21;95510.63;;;30.03;32.92
36828;BME280;22766;48.042;11.192;2022-10-30T11:09:52;95513.38;;;30.23;29.96
36828;BME280;22766;48.042;11.192;2022-10-30T11:12:23;95512.25;;;30.04;31.24
36828;BME280;22766;48.042;11.192;2022-10-30T11:14:50;95508.75;;;29.52;31.10
36828;BME280;22766;48.042;11.192;2022-10-30T11:17:24;95502.59;;;28.78;34.36
36828;BME280;22766;48.042;11.192;2022-10-30T11:20:00;95497.63;;;29.18;34.30
36828;BME280;22766;48.042;11.192;2022-10-30T11:22:39;95499.72;;;29.53;32.15
36828;BME280;22766;48.042;11.192;2022-10-30T11:25:20;95495.50;;;28.09;33.83
36828;BME280;22766;48.042;11.192;2022-10-30T11:27:58;95500.34;;;27.73;35.63
36828;BME280;22766;48.042;11.192;2022-10-30T11:30:26;95488.72;;;27.20;38.41
36828;BME280;22766;48.042;11.192;2022-10-30T11:32:54;95496.88;;;26.24;39.00
36828;BME280;22766;48.042;11.192;2022-10-30T11:35:23;95488.13;;;26.51;38.92
36828;BME280;22766;48.042;11.192;2022-10-30T11:37:52;95481.13;;;27.28;37.30
36828;BME280;22766;48.042;11.192;2022-10-30T11:40:36;95483.59;;;29.28;32.65
36828;BME280;22766;48.042;11.192;2022-10-30T11:43:03;95485.75;;;30.50;31.12
36828;BME280;22766;48.042;11.192;2022-10-30T11:45:39;95476.59;;;29.64;28.27
36828;BME280;22766;48.042;11.192;2022-10-30T11:50:48;95479.13;;;31.02;26.73
36828;BME280;22766;48.042;11.192;2022-10-30T11:53:22;95467.38;;;31.28;26.15
36828;BME280;22766;48.042;11.192;2022-10-30T11:55:56;95470.72;;;31.89;26.27
36828;BME280;22766;48.042;11.192;2022-10-30T11:58:28;95472.44;;;30.80;27.41
36828;BME280;22766;48.042;11.192;2022-10-30T12:01:01;95467.66;;;31.37;28.25
36828;BME280;22766;48.042;11.192;2022-10-30T12:03:35;95461.19;;;31.68;27.14
36828;BME280;22766;48.042;11.192;2022-10-30T12:09:21;95465.22;;;32.25;26.40
36828;BME280;22766;48.042;11.192;2022-10-30T12:11:48;95458.06;;;32.59;26.03
36828;BME280;22766;48.042;11.192;2022-10-30T12:16:46;95447.69;;;32.03;25.59
36828;BME280;22766;48.042;11.192;2022-10-30T12:19:15;95448.44;;;31.30;26.97
36828;BME280;22766;48.042;11.192;2022-10-30T12:21:54;95445.97;;;31.64;25.86
36828;BME280;22766;48.042;11.192;2022-10-30T12:24:30;95448.94;;;31.57;25.31
36828;BME280;22766;48.042;11.192;2022-10-30T12:27:01;95446.56;;;31.41;27.02
36828;BME280;22766;48.042;11.192;2022-10-30T12:32:57;95437.72;;;32.63;24.44
36828;BME280;22766;48.042;11.192;2022-10-30T12:35:41;95440.19;;;31.06;26.34
36828;BME280;22766;48.042;11.192;2022-10-30T12:40:53;95433.34;;;28.58;32.37
36828;BME280;22766;48.042;11.192;2022-10-30T12:43:31;95433.56;;;27.82;34.39
36828;BME280;22766;48.042;11.192;2022-10-30T12:46:26;95435.53;;;28.66;33.90
36828;BME280;22766;48.042;11.192;2022-10-30T12:49:06;95431.22;;;28.60;34.18
36828;BME280;22766;48.042;11.192;2022-10-30T12:51:48;95434.28;;;29.62;32.89
36828;BME280;22766;48.042;11.192;2022-10-30T12:59:45;95423.13;;;32.84;27.41
36828;BME280;22766;48.042;11.192;2022-10-30T13:04:57;95423.44;;;32.34;26.29
36828;BME280;22766;48.042;11.192;2022-10-30T13:07:50;95420.78;;;32.39;27.00
36828;BME280;22766;48.042;11.192;2022-10-30T13:13:02;95415.06;;;32.55;26.69
36828;BME280;22766;48.042;11.192;2022-10-30T13:15:42;95412.13;;;31.49;26.63
36828;BME280;22766;48.042;11.192;2022-10-30T13:18:21;95415.63;;;31.24;29.78
36828;BME280;22766;48.042;11.192;2022-10-30T13:21:13;95416.13;;;31.32;30.11
36828;BME280;22766;48.042;11.192;2022-10-30T13:26:52;95413.31;;;31.82;30.34
36828;BME280;22766;48.042;11.192;2022-10-30T13:29:33;95405.22;;;32.02;29.48
36828;BME280;22766;48.042;11.192;2022-10-30T13:32:42;95404.38;;;31.33;30.99
36828;BME280;22766;48.042;11.192;2022-10-30T13:35:33;95409.78;;;30.57;30.65
36828;BME280;22766;48.042;11.192;2022-10-30T13:40:50;95402.22;;;32.86;27.54
36828;BME280;22766;48.042;11.192;2022-10-30T13:43:36;95404.09;;;32.85;27.53
36828;BME280;22766;48.042;11.192;2022-10-30T13:49:12;95399.69;;;30.69;30.65
36828;BME280;22766;48.042;11.192;2022-10-30T13:51:52;95399.63;;;29.47;33.33
36828;BME280;22766;48.042;11.192;2022-10-30T13:54:24;95404.59;;;29.80;32.32
36828;BME280;22766;48.042;11.192;2022-10-30T13:56:53;95406.97;;;29.77;34.15
36828;BME280;22766;48.042;11.192;2022-10-30T13:59:36;95404.66;;;28.97;35.39
36828;BME280;22766;48.042;11.192;2022-10-30T14:02:12;95397.53;;;28.39;36.30
36828;BME280;22766;48.042;11.192;2022-10-30T14:08:00;95407.41;;;27.47;38.96
36828;BME280;22766;48.042;11.192;2022-10-30T14:10:46;95406.63;;;25.97;42.96
36828;BME280;22766;48.042;11.192;2022-10-30T14:13:27;95408.44;;;25.17;44.23
36828;BME280;22766;48.042;11.192;2022-10-30T14:16:03;95409.56;;;24.29;48.59
36828;BME280;22766;48.042;11.192;2022-10-30T14:18:45;95409.72;;;23.74;52.10
36828;BME280;22766;48.042;11.192;2022-10-30T14:24:30;95412.09;;;21.74;60.44
36828;BME280;22766;48.042;11.192;2022-10-30T14:29:39;95412.78;;;20.92;71.53
36828;BME280;22766;48.042;11.192;2022-10-30T14:37:09;95406.09;;;21.09;70.35
36828;BME280;22766;48.042;11.192;2022-10-30T14:39:43;95411.38;;;20.77;72.66
36828;BME280;22766;48.042;11.192;2022-10-30T14:58:42;95412.44;;;20.36;66.20
36828;BME280;22766;48.042;11.192;2022-10-30T15:01:23;95412.59;;;20.09;70.84
36828;BME280;22766;48.042;11.192;2022-10-30T15:09:32;95410.50;;;19.24;75.81
36828;BME280;22766;48.042;11.192;2022-10-30T15:12:22;95417.13;;;19.14;80.71
36828;BME280;22766;48.042;11.192;2022-10-30T15:15:00;95414.47;;;19.07;72.46
36828;BME280;22766;48.042;11.192;2022-10-30T15:17:42;95418.72;;;18.74;70.43
36828;BME280;22766;48.042;11.192;2022-10-30T15:20:23;95415.50;;;18.44;81.57
36828;BME280;22766;48.042;11.192;2022-10-30T15:23:05;95417.06;;;18.18;84.66
36828;BME280;22766;48.042;11.192;2022-10-30T15:25:45;95428.69;;;17.94;83.66
36828;BME280;22766;48.042;11.192;2022-10-30T15:28:26;95427.06;;;17.93;81.99